NCAR-RAP Real-Time Weather Data

Output produced by METARs form (16 August 2018  19:23 UTC)
found at http://weather.rap.ucar.edu/surface/
 
RJOC 161100Z 02017KT 9999 FEW020 SCT030 BKN050 26/20 Q1011
RJOC 161000Z 02013KT 9999 FEW015 SCT020 BKN030 27/22 Q1010
RJOC 160900Z 02008KT 9999 VCSH FEW015 SCT035 BKN080 28/21 Q1010
RJOC 160800Z 01009KT 9999 FEW015 SCT030 BKN080 28/22 Q1009
RJOC 160700Z 36011KT 9999 FEW015 SCT020 BKN030 27/22 Q1009
RJOC 160600Z 34015KT 9999 FEW008 SCT025 BKN050 27/22 Q1009
RJOC 160500Z 30006KT 9999 FEW015 SCT025 BKN050 28/24 Q1008
RJOC 160400Z 30009KT 9999 -SHRA FEW011 SCT020 BKN025 27/24 Q1009
RJOC 160300Z 28010KT 9999 FEW004 SCT010 BKN020 FEW020TCU 27/23 Q1008
RJOC 160217Z 23014KT 9999 -SHRA BR FEW005 SCT010 BKN020 FEW020CB 26/24 Q1008 RMK 1ST005 4CU010 6CU020 2CB020 A2979 4000SW CB 5KM S MOV E
RJOC 160208Z 23015KT 9999 SHRA FEW005 SCT010 BKN020 FEW020CB 26/24 Q1008 RMK 1ST005 3CU010 6ST020 1CB020 A2978 CB 10KM S MOV E
RJOC 160200Z 23015KT 9999 -SHRA FEW005 SCT010 BKN020 FEW020TCU 26/24 Q1008
RJOC 160144Z 22012KT 4000 +SHRA BR FEW005 SCT010 BKN020TCU 26/24 Q1008 RMK 1ST005 3CU010 7TCU020 A2979 9999NW-NE TCU OHD MOV E
RJOC 160132Z 23010KT 3000 +SHRA BR FEW005 SCT015 BKN020TCU 27/24 Q1008 RMK 1ST005 3CU015 7TCU020 A2979 TCU OHD MOV E
RJOC 160100Z 25009KT 9999 -SHRA FEW007 SCT020 BKN030 27/24 Q1008
RJOC 160000Z 19008KT 9999 -SHRA FEW020 SCT030 BKN045 26/24 Q1006
RJOC 152350Z 22006KT 9999 SHRA FEW020 SCT035 BKN045 26/24 Q1007 RMK 1CU020 3CU035 6CU045 A2975
RJOC 152300Z 25005KT 9999 -SHRA FEW020 SCT045 BKN070 26/24 Q1007
RJOC 152200Z 20003KT 9999 -SHRA FEW020 SCT045 BKN080 26/24 Q1007
RJOC 152130Z 29006KT 270V330 9999 VCSH FEW015 SCT045 BKN080 26/24 Q1006
RJOC 152110Z 28003KT 240V310 9999 VCSH FEW015 SCT050 BKN080 27/24 Q1006 RMK 1CU015 4SC050 7AC080 A2973 VCSH E
RJOC 151100Z 10004KT 9999 FEW020 SCT045 BKN110 29/23 Q1008
RJOC 151000Z 10005KT 9999 -SHRA FEW020 SCT045 BKN110 30/23 Q1008
RJOC 150900Z VRB02KT 9999 VCSH FEW020 SCT045 BKN110 31/23 Q1007
RJOC 150800Z 20005KT 160V240 9999 FEW020 SCT045 BKN110 31/23 Q1008
RJOC 150700Z 19008KT 9999 -SHRA FEW020 SCT045 BKN090 32/22 Q1007
RJOC 150600Z 14003KT 100V170 9999 -SHRA FEW015 SCT045 BKN120 33/24 Q1008
RJOC 150500Z 08004KT 020V130 9999 FEW020 SCT060 BKN100 33/24 Q1008
RJOC 150400Z VRB01KT 9999 -SHRA FEW013 SCT050 BKN100 31/23 Q1008
RJOC 150300Z 09005KT 050V120 9999 -SHRA FEW020 SCT060 BKN100 31/23 Q1009
RJOC 150200Z 15006KT 9999 -SHRA FEW020 SCT060 BKN090 31/23 Q1009
RJOC 150100Z 13003KT 080V180 9999 FEW020 SCT050 BKN100 31/23 Q1009
RJOC 150000Z 16003KT 120V280 9999 FEW020 SCT060 BKN100 29/23 Q1009
RJOC 142300Z 17003KT 9999 -SHRA FEW018 SCT050 BKN080 29/22 Q1009
RJOC 142200Z 13004KT 9999 -SHRA FEW020 SCT060 BKN100 28/23 Q1009
RJOC 142130Z 08005KT 9999 VCSH FEW020 SCT100 BKN120 28/23 Q1009
RJOC 142110Z 08005KT 9999 VCSH FEW020 SCT110 BKN130 29/22 Q1009 RMK 1CU020 3AC110 6AC130 A2980 VCSH SE
RJOC 141100Z 07012KT 9999 FEW030 BKN/// 30/24 Q1010
RJOC 141000Z 08011KT 9999 FEW030 BKN/// 31/24 Q1010
RJOC 140900Z 01009KT 9999 FEW030 BKN/// 32/24 Q1009
RJOC 140800Z 02011KT 9999 FEW030 BKN/// 33/23 Q1009